Time;durP1;ratioP1;P1;durP2;ratioP2;P2;SDS_P1;SDS_P2;PMS_P1;PMS_P2;Temp;Humidity;BMP_temperature;BMP_pressure;BME280_temperature;BME280_humidity;BME280_pressure;Samples;Min_cycle;Max_cycle;Signal;HPM_P1;HPM_P2
2022/03/07 00:00:30;;;;;;;23.77;15.52;;;;;;;-2.33;80.29;102681.00;4975077;28;20078;-61
2022/03/07 00:02:56;;;;;;;24.45;15.27;;;;;;;-2.36;80.26;102683.03;4980566;28;20038;-59
2022/03/07 00:05:21;;;;;;;22.92;15.25;;;;;;;-2.36;79.74;102687.63;4979968;28;20110;-60
2022/03/07 00:07:46;;;;;;;22.15;14.10;;;;;;;-2.41;80.38;102680.03;4977726;28;20039;-61
2022/03/07 00:10:12;;;;;;;22.13;13.93;;;;;;;-2.42;80.78;102682.91;4982451;28;20055;-60
2022/03/07 00:12:37;;;;;;;22.63;15.27;;;;;;;-2.43;80.48;102682.06;4975477;28;20069;-61
2022/03/07 00:15:03;;;;;;;22.33;14.38;;;;;;;-2.44;80.53;102671.41;4985012;28;20042;-61
2022/03/07 00:17:28;;;;;;;24.63;15.25;;;;;;;-2.46;80.45;102681.56;4974095;28;20034;-60
2022/03/07 00:19:54;;;;;;;21.70;14.52;;;;;;;-2.47;79.96;102683.44;4983454;28;20035;-60
2022/03/07 00:22:19;;;;;;;24.35;14.82;;;;;;;-2.50;80.15;102678.34;4975474;28;20050;-60
2022/03/07 00:24:44;;;;;;;22.42;14.60;;;;;;;-2.54;79.89;102677.00;4978617;28;20085;-62
2022/03/07 00:27:09;;;;;;;24.83;14.88;;;;;;;-2.58;79.78;102679.22;4980806;28;20395;-61
2022/03/07 00:29:35;;;;;;;23.52;14.55;;;;;;;-2.65;79.61;102680.94;4977068;28;20080;-61
2022/03/07 00:32:00;;;;;;;23.50;14.98;;;;;;;-2.68;79.51;102687.53;4982335;28;20047;-60
2022/03/07 00:34:25;;;;;;;22.20;14.90;;;;;;;-2.71;79.87;102684.34;4974775;28;20098;-60
2022/03/07 00:36:51;;;;;;;24.60;15.35;;;;;;;-2.77;79.84;102683.16;4982417;28;20058;-60
2022/03/07 00:39:16;;;;;;;23.23;15.48;;;;;;;-2.72;80.62;102688.91;4982407;28;20031;-61
2022/03/07 00:41:42;;;;;;;25.02;14.65;;;;;;;-2.76;80.20;102697.53;4982592;28;20022;-61
2022/03/07 00:44:07;;;;;;;23.98;14.77;;;;;;;-2.76;80.70;102694.81;4976787;28;20372;-61
2022/03/07 00:46:32;;;;;;;22.52;14.40;;;;;;;-2.80;80.66;102694.31;4977297;28;20077;-62
2022/03/07 00:48:58;;;;;;;22.83;14.80;;;;;;;-2.81;80.58;102689.94;4981821;28;20061;-61
2022/03/07 00:51:26;;;;;;;23.50;15.30;;;;;;;-2.84;81.06;102693.00;4976283;28;20033;-61
2022/03/07 00:53:51;;;;;;;22.92;14.25;;;;;;;-2.88;80.69;102688.94;4981941;28;20031;-61
2022/03/07 00:56:17;;;;;;;23.52;14.65;;;;;;;-2.89;81.10;102688.09;4956475;28;20081;-61
2022/03/07 00:58:42;;;;;;;22.60;13.70;;;;;;;-2.91;81.40;102689.25;4984770;28;20034;-62
2022/03/07 01:01:08;;;;;;;22.70;13.98;;;;;;;-2.92;81.93;102696.53;4973304;28;20517;-61
2022/03/07 01:03:33;;;;;;;23.70;15.13;;;;;;;-2.92;81.62;102692.97;4981325;28;20034;-61
2022/03/07 01:05:58;;;;;;;22.98;13.70;;;;;;;-2.93;81.71;102691.31;4977218;28;20566;-62
2022/03/07 01:08:26;;;;;;;23.73;15.15;;;;;;;-2.96;81.70;102689.75;4973320;28;20033;-60
2022/03/07 01:10:51;;;;;;;23.30;15.07;;;;;;;-2.94;81.74;102698.56;4973025;28;20487;-60
2022/03/07 01:13:18;;;;;;;22.55;14.25;;;;;;;-2.95;82.10;102691.47;4972689;28;20089;-60
2022/03/07 01:15:43;;;;;;;24.85;16.05;;;;;;;-2.99;81.62;102699.09;4972917;28;20031;-61
2022/03/07 01:18:08;;;;;;;23.52;14.75;;;;;;;-3.01;81.38;102701.09;4972908;28;20118;-58
2022/03/07 01:20:34;;;;;;;25.05;15.15;;;;;;;-2.99;81.78;102700.97;4973021;28;20034;-60
2022/03/07 01:23:00;;;;;;;23.50;15.20;;;;;;;-3.05;81.33;102697.06;4971868;28;20478;-60
2022/03/07 01:25:25;;;;;;;24.55;14.60;;;;;;;-3.09;81.47;102687.56;4955727;28;20081;-61
2022/03/07 01:27:50;;;;;;;24.20;14.48;;;;;;;-3.13;81.62;102697.91;4973641;28;20470;-61
2022/03/07 01:30:16;;;;;;;23.45;14.18;;;;;;;-3.18;82.07;102692.16;4974852;28;20045;-59
2022/03/07 01:32:41;;;;;;;24.75;15.32;;;;;;;-3.18;82.37;102697.56;4977283;28;20031;-60
2022/03/07 01:35:07;;;;;;;23.20;15.13;;;;;;;-3.20;82.75;102688.75;4977260;28;20031;-61
2022/03/07 01:37:32;;;;;;;23.65;14.82;;;;;;;-3.21;82.56;102691.66;4976800;28;20039;-61
2022/03/07 01:39:58;;;;;;;25.58;16.52;;;;;;;-3.21;83.38;102694.34;4976993;28;20074;-60
2022/03/07 01:42:23;;;;;;;23.27;15.43;;;;;;;-3.21;83.46;102687.06;4976881;28;20030;-61
2022/03/07 01:44:49;;;;;;;25.42;15.95;;;;;;;-3.20;83.74;102694.19;4976117;28;20041;-59
2022/03/07 01:47:14;;;;;;;25.02;14.80;;;;;;;-3.23;83.89;102686.38;4976583;28;20030;-60
2022/03/07 01:49:40;;;;;;;24.58;15.10;;;;;;;-3.21;83.79;102694.34;4976098;28;20094;-60
2022/03/07 01:52:06;;;;;;;24.40;15.65;;;;;;;-3.22;83.51;102692.66;4976290;28;20069;-63
2022/03/07 01:54:32;;;;;;;25.33;16.60;;;;;;;-3.25;83.47;102690.28;4976393;28;20109;-62
2022/03/07 01:56:57;;;;;;;24.13;16.30;;;;;;;-3.28;84.14;102694.19;4976126;28;20463;-63
2022/03/07 01:59:27;;;;;;;26.17;15.88;;;;;;;-3.35;83.41;102679.59;4976111;28;20035;-60
2022/03/07 02:01:54;;;;;;;28.55;16.92;;;;;;;-3.31;83.81;102689.09;4976305;28;20081;-62
2022/03/07 02:04:19;;;;;;;23.48;16.38;;;;;;;-3.35;84.03;102685.88;4974978;28;20483;-60
2022/03/07 02:06:46;;;;;;;25.02;15.30;;;;;;;-3.33;84.26;102685.69;4976596;28;20038;-61
2022/03/07 02:09:11;;;;;;;25.77;15.98;;;;;;;-3.33;84.79;102683.00;4958578;28;20031;-60
2022/03/07 02:11:38;;;;;;;24.88;16.40;;;;;;;-3.34;84.77;102684.88;4975801;28;20093;-60
2022/03/07 02:14:18;;;;;;;25.27;16.05;;;;;;;-3.36;84.17;102677.94;4976515;28;20058;-62
2022/03/07 02:16:45;;;;;;;25.50;16.33;;;;;;;-3.33;84.55;102672.16;4976318;28;20076;-60
2022/03/07 02:19:12;;;;;;;25.35;15.95;;;;;;;-3.34;84.55;102670.47;4976099;28;20114;-59
2022/03/07 02:21:42;;;;;;;25.25;16.27;;;;;;;-3.37;84.90;102670.81;4976492;28;20438;-61
2022/03/07 02:24:08;;;;;;;25.35;17.40;;;;;;;-3.35;84.92;102671.47;4976352;28;20026;-59
2022/03/07 02:26:33;;;;;;;24.42;15.68;;;;;;;-3.34;85.23;102673.19;4975960;28;20038;-61
2022/03/07 02:28:58;;;;;;;24.23;15.68;;;;;;;-3.36;84.42;102669.81;4976029;28;20034;-60
2022/03/07 02:31:24;;;;;;;25.35;16.42;;;;;;;-3.37;85.01;102660.84;4975865;28;20054;-59
2022/03/07 02:33:49;;;;;;;26.50;16.52;;;;;;;-3.35;85.30;102671.47;4975923;28;20105;-60
2022/03/07 02:36:15;;;;;;;24.63;16.00;;;;;;;-3.36;85.25;102667.09;4975894;28;20502;-60
2022/03/07 02:38:40;;;;;;;25.30;16.55;;;;;;;-3.36;85.33;102673.34;4976048;28;20360;-63
2022/03/07 02:41:05;;;;;;;25.80;16.90;;;;;;;-3.35;85.01;102675.06;4974908;28;20027;-61
2022/03/07 02:43:31;;;;;;;25.42;16.77;;;;;;;-3.38;85.72;102675.38;4975870;28;20030;-61
2022/03/07 02:45:58;;;;;;;25.60;16.13;;;;;;;-3.38;85.77;102669.13;4975543;28;20502;-59
2022/03/07 02:48:26;;;;;;;24.05;15.40;;;;;;;-3.39;85.20;102673.69;4975699;28;20054;-60
2022/03/07 02:50:52;;;;;;;27.15;16.83;;;;;;;-3.42;86.45;102668.63;4975650;28;20031;-60
2022/03/07 02:53:17;;;;;;;25.80;16.17;;;;;;;-3.41;85.54;102670.31;4976045;28;20026;-60
2022/03/07 02:55:43;;;;;;;26.05;15.77;;;;;;;-3.43;85.87;102672.34;4975469;28;20026;-60
2022/03/07 02:58:08;;;;;;;25.52;16.17;;;;;;;-3.47;86.18;102666.41;4975515;28;20057;-58
2022/03/07 03:00:34;;;;;;;24.95;15.82;;;;;;;-3.47;85.76;102674.53;4975108;28;20030;-59
2022/03/07 03:02:59;;;;;;;25.50;15.90;;;;;;;-3.47;86.24;102665.56;4957716;28;20089;-59
2022/03/07 03:05:25;;;;;;;24.00;15.32;;;;;;;-3.46;86.06;102665.41;4957352;28;20034;-60
2022/03/07 03:07:51;;;;;;;25.75;15.60;;;;;;;-3.47;85.75;102668.25;4975231;28;20077;-61
2022/03/07 03:10:17;;;;;;;24.27;15.48;;;;;;;-3.49;85.89;102663.03;5011111;23;20512;-53
2022/03/07 03:12:43;;;;;;;25.73;17.58;;;;;;;-3.49;86.17;102664.88;5015462;28;20048;-53
2022/03/07 03:15:09;;;;;;;25.40;16.08;;;;;;;-3.50;86.76;102664.03;5032901;28;20409;-55
2022/03/07 03:17:38;;;;;;;25.38;15.57;;;;;;;-3.50;86.17;102674.88;5033026;28;20033;-53
2022/03/07 03:20:04;;;;;;;26.30;16.67;;;;;;;-3.50;87.06;102663.22;5033240;28;20026;-52
2022/03/07 03:22:29;;;;;;;25.45;16.58;;;;;;;-3.51;87.17;102665.06;5033445;28;20396;-54
2022/03/07 03:24:54;;;;;;;25.90;16.20;;;;;;;-3.50;87.56;102660.50;5034034;28;20030;-53
2022/03/07 03:27:20;;;;;;;26.58;16.00;;;;;;;-3.50;87.03;102665.91;5033604;28;20025;-54
2022/03/07 03:29:45;;;;;;;26.23;16.75;;;;;;;-3.51;87.60;102667.75;5033697;28;20120;-54
2022/03/07 03:32:10;;;;;;;26.83;16.75;;;;;;;-3.52;87.65;102657.94;5034119;28;20119;-53
2022/03/07 03:34:36;;;;;;;26.98;16.67;;;;;;;-3.52;86.92;102673.34;5033776;28;20067;-52
2022/03/07 03:37:01;;;;;;;26.33;16.77;;;;;;;-3.54;87.05;102664.53;5034254;28;20029;-55
2022/03/07 03:39:26;;;;;;;25.90;15.32;;;;;;;-3.57;86.28;102670.28;5033938;28;20492;-52
2022/03/07 03:41:51;;;;;;;26.38;16.67;;;;;;;-3.61;87.16;102672.47;5033680;28;20078;-53
2022/03/07 03:44:17;;;;;;;25.58;16.10;;;;;;;-3.61;86.49;102672.47;5033910;28;20477;-49
2022/03/07 03:46:42;;;;;;;26.50;15.77;;;;;;;-3.64;86.59;102681.78;5033215;28;20041;-52
2022/03/07 03:49:08;;;;;;;24.88;16.17;;;;;;;-3.66;86.45;102674.84;5032566;28;20183;-53
2022/03/07 03:51:34;;;;;;;25.98;16.55;;;;;;;-3.70;87.01;102679.75;5032932;28;20159;-53
2022/03/07 03:54:00;;;;;;;25.77;16.58;;;;;;;-3.73;86.77;102682.75;5031927;28;20029;-54
2022/03/07 03:56:26;;;;;;;25.63;16.67;;;;;;;-3.74;87.64;102680.22;5033271;28;20030;-52
2022/03/07 03:58:51;;;;;;;27.42;17.35;;;;;;;-3.77;86.86;102679.53;5033313;28;20485;-54
2022/03/07 04:01:16;;;;;;;27.25;16.52;;;;;;;-3.80;87.52;102684.44;5032681;28;20106;-53
2022/03/07 04:03:41;;;;;;;27.85;18.50;;;;;;;-3.78;87.98;102682.44;5032463;28;20113;-53
2022/03/07 04:06:08;;;;;;;26.63;16.83;;;;;;;-3.80;88.01;102670.91;5032783;28;20026;-53
2022/03/07 04:08:49;;;;;;;28.08;17.38;;;;;;;-3.81;88.18;102671.94;5033070;28;20102;-53
2022/03/07 04:11:15;;;;;;;26.25;16.33;;;;;;;-3.81;88.27;102682.75;5033067;28;20063;-53
2022/03/07 04:13:47;;;;;;;27.40;16.90;;;;;;;-3.89;86.98;102678.16;5109488;27;20391;-54
2022/03/07 04:16:12;;;;;;;25.23;16.73;;;;;;;-3.90;87.57;102679.16;5109662;28;20036;-54
2022/03/07 04:18:38;;;;;;;25.60;16.63;;;;;;;-3.93;87.70;102682.22;5109791;28;20027;-54
2022/03/07 04:21:03;;;;;;;25.30;17.23;;;;;;;-3.95;87.66;102676.13;5109951;28;20067;-54
2022/03/07 04:23:28;;;;;;;27.25;16.70;;;;;;;-3.97;87.20;102675.44;5110301;28;20032;-54
2022/03/07 04:25:53;;;;;;;27.20;17.30;;;;;;;-4.00;87.32;102675.75;5109869;28;20062;-53
2022/03/07 04:28:19;;;;;;;27.52;16.63;;;;;;;-3.99;88.03;102674.72;5108600;28;20043;-55
2022/03/07 04:30:44;;;;;;;28.80;18.65;;;;;;;-4.00;88.61;102683.84;5109856;28;20020;-56
2022/03/07 04:33:11;;;;;;;27.55;17.90;;;;;;;-4.01;88.68;102685.72;5109339;28;20055;-56
2022/03/07 04:35:36;;;;;;;25.90;16.75;;;;;;;-4.03;88.72;102678.78;5109364;28;20487;-56
2022/03/07 04:38:02;;;;;;;27.42;17.48;;;;;;;-4.05;88.32;102675.41;5109694;28;20039;-55
2022/03/07 04:40:28;;;;;;;29.23;17.25;;;;;;;-4.06;88.64;102677.25;5109814;28;20070;-56
2022/03/07 04:42:55;;;;;;;27.55;17.30;;;;;;;-4.07;87.96;102676.41;5110128;28;20441;-56
2022/03/07 04:45:21;;;;;;;27.75;17.83;;;;;;;-4.09;88.92;102685.69;5109532;28;20054;-55
2022/03/07 04:47:47;;;;;;;27.58;17.38;;;;;;;-4.09;88.23;102678.41;5109468;28;20047;-56
2022/03/07 04:50:13;;;;;;;29.55;18.17;;;;;;;-4.14;87.92;102675.38;5109369;28;20165;-55
2022/03/07 04:52:39;;;;;;;26.17;16.90;;;;;;;-4.19;88.75;102671.47;5108897;28;20020;-55
2022/03/07 04:55:05;;;;;;;26.52;17.25;;;;;;;-4.16;88.29;102679.25;5109389;28;20028;-56
2022/03/07 04:57:30;;;;;;;28.63;18.48;;;;;;;-4.13;89.42;102684.31;5108981;28;20026;-55
2022/03/07 04:59:56;;;;;;;27.55;17.52;;;;;;;-4.12;89.86;102684.19;5108684;28;20024;-55
2022/03/07 05:02:21;;;;;;;26.85;17.35;;;;;;;-4.14;88.78;102677.22;5108707;28;20066;-55
2022/03/07 05:04:46;;;;;;;26.90;17.98;;;;;;;-4.12;89.51;102678.75;5108427;28;20361;-55
2022/03/07 05:07:12;;;;;;;29.83;18.10;;;;;;;-4.13;89.56;102682.47;5108537;28;20027;-55
2022/03/07 05:09:37;;;;;;;28.40;18.92;;;;;;;-4.13;89.90;102679.78;5108655;28;20028;-54
2022/03/07 05:12:03;;;;;;;27.02;18.08;;;;;;;-4.15;89.85;102673.69;5109160;28;20052;-54
2022/03/07 05:14:28;;;;;;;27.83;17.88;;;;;;;-4.16;89.75;102674.69;5108710;27;20471;-55
2022/03/07 05:16:53;;;;;;;28.17;17.48;;;;;;;-4.18;89.01;102673.16;5108410;28;20028;-55
2022/03/07 05:19:19;;;;;;;31.02;18.13;;;;;;;-4.20;89.78;102677.88;5108168;28;20099;-55
2022/03/07 05:21:44;;;;;;;28.42;17.85;;;;;;;-4.23;89.11;102670.94;5107315;28;20020;-54
2022/03/07 05:24:10;;;;;;;27.92;18.38;;;;;;;-4.21;89.69;102676.19;5100245;28;20032;-54
2022/03/07 05:26:36;;;;;;;30.15;18.95;;;;;;;-4.23;90.02;102679.06;5094705;28;20028;-54
2022/03/07 05:29:03;;;;;;;29.95;18.52;;;;;;;-4.26;90.00;102682.06;5095396;28;20491;-55
2022/03/07 05:31:29;;;;;;;28.40;18.42;;;;;;;-4.26;89.25;102672.13;5094349;28;20467;-56
2022/03/07 05:33:54;;;;;;;27.45;17.92;;;;;;;-4.28;89.79;102679.53;5094434;28;20035;-56
2022/03/07 05:36:19;;;;;;;28.52;18.30;;;;;;;-4.29;89.07;102671.56;5094784;28;20020;-56
2022/03/07 05:38:45;;;;;;;31.55;18.80;;;;;;;-4.27;90.25;102681.22;5094625;28;20387;-57
2022/03/07 05:41:10;;;;;;;30.67;19.27;;;;;;;-4.26;89.97;102674.81;5094411;28;20041;-56
2022/03/07 05:43:35;;;;;;;32.53;19.42;;;;;;;-4.27;90.52;102666.84;5094592;28;20028;-56
2022/03/07 05:46:00;;;;;;;28.27;19.90;;;;;;;-4.26;90.48;102666.72;5094698;28;20020;-56
2022/03/07 05:48:26;;;;;;;28.77;18.60;;;;;;;-4.26;89.81;102669.41;5094150;28;20024;-55
2022/03/07 05:50:51;;;;;;;29.40;18.95;;;;;;;-4.26;90.06;102680.22;5094551;28;20028;-55
2022/03/07 05:53:21;;;;;;;30.15;19.42;;;;;;;-4.26;90.11;102680.22;5092137;28;20031;-55
2022/03/07 05:55:47;;;;;;;29.65;18.77;;;;;;;-4.26;90.49;102682.94;5094643;28;20043;-55
2022/03/07 05:58:12;;;;;;;30.38;19.65;;;;;;;-4.26;90.02;102676.66;5094271;28;20115;-56
2022/03/07 06:00:37;;;;;;;30.23;19.48;;;;;;;-4.26;90.64;102687.47;5094181;28;20056;-55
2022/03/07 06:03:03;;;;;;;30.58;19.23;;;;;;;-4.27;90.17;102686.63;5094009;28;20028;-55
2022/03/07 06:05:28;;;;;;;31.20;20.35;;;;;;;-4.26;90.72;102693.75;5094010;28;20020;-53
2022/03/07 06:07:53;;;;;;;30.48;19.60;;;;;;;-4.25;90.87;102699.97;5094405;28;20076;-54
2022/03/07 06:10:19;;;;;;;30.73;20.50;;;;;;;-4.26;90.04;102704.56;5093212;28;20479;-55
2022/03/07 06:12:44;;;;;;;29.35;16.17;;;;;;;-4.27;90.67;102705.56;5093457;28;20056;-54
2022/03/07 06:15:09;;;;;;;29.55;14.65;;;;;;;-4.30;90.52;102711.28;5092694;28;20169;-52
2022/03/07 06:17:35;;;;;;;28.92;14.65;;;;;;;-4.27;90.59;102713.66;5093222;28;20024;-54
2022/03/07 06:20:00;;;;;;;32.05;15.25;;;;;;;-4.26;90.76;102722.59;5093744;28;20036;-54
2022/03/07 06:22:25;;;;;;;31.30;16.83;;;;;;;-4.26;90.73;102722.59;5093735;28;20028;-54
2022/03/07 06:24:51;;;;;;;28.83;13.80;;;;;;;-4.27;90.35;102720.91;5093629;28;20399;-53
2022/03/07 06:27:17;;;;;;;30.52;15.02;;;;;;;-4.25;91.37;102719.72;5093900;28;20113;-54
2022/03/07 06:29:42;;;;;;;30.05;16.58;;;;;;;-4.21;91.40;102719.41;5093742;28;20049;-54
2022/03/07 06:32:08;;;;;;;30.20;14.55;;;;;;;-4.17;90.55;102723.50;5093384;28;20456;-54
2022/03/07 06:34:33;;;;;;;30.75;15.70;;;;;;;-4.14;90.68;102728.56;5093028;28;20085;-54
2022/03/07 06:37:00;;;;;;;31.35;16.83;;;;;;;-4.14;91.13;102715.91;5092694;28;20036;-54
2022/03/07 06:39:27;;;;;;;30.33;16.85;;;;;;;-4.08;90.78;102722.53;5093372;28;20035;-55
2022/03/07 06:41:53;;;;;;;29.20;16.30;;;;;;;-4.06;91.22;102728.59;5094067;28;20088;-54
2022/03/07 06:44:18;;;;;;;30.73;16.45;;;;;;;-4.00;91.20;102735.22;5093963;28;20149;-54
2022/03/07 06:46:44;;;;;;;32.22;19.58;;;;;;;-3.98;90.24;102734.06;5093908;28;20103;-53
2022/03/07 06:49:09;;;;;;;30.30;16.58;;;;;;;-3.95;90.46;102733.72;5092516;28;20489;-55
2022/03/07 06:51:34;;;;;;;31.85;17.67;;;;;;;-3.88;90.80;102739.34;5093686;28;20047;-54
2022/03/07 06:53:59;;;;;;;32.85;17.75;;;;;;;-3.85;90.67;102728.22;5093151;28;20040;-55
2022/03/07 06:56:25;;;;;;;30.35;16.48;;;;;;;-3.79;90.15;102737.53;5093635;28;20031;-55
2022/03/07 06:58:50;;;;;;;30.33;15.38;;;;;;;-3.73;90.38;102731.47;5093522;28;20024;-52
2022/03/07 07:01:15;;;;;;;32.80;15.52;;;;;;;-3.67;90.26;102730.78;5093285;28;20031;-54
2022/03/07 07:03:40;;;;;;;34.90;19.30;;;;;;;-3.61;90.33;102729.28;5092743;28;20035;-54
2022/03/07 07:06:06;;;;;;;31.38;18.75;;;;;;;-3.54;89.98;102732.19;5093043;28;20093;-55
2022/03/07 07:08:31;;;;;;;31.45;15.02;;;;;;;-3.50;90.34;102718.16;5093029;28;20024;-56
2022/03/07 07:10:56;;;;;;;33.90;14.50;;;;;;;-3.45;90.00;102717.66;5093699;28;20524;-55
2022/03/07 07:13:22;;;;;;;28.25;13.55;;;;;;;-3.37;90.10;102725.78;5093528;28;20336;-56
2022/03/07 07:15:54;;;;;;;32.50;15.68;;;;;;;-3.30;90.01;102729.50;5092256;28;20036;-56
2022/03/07 07:18:20;;;;;;;32.87;14.90;;;;;;;-3.21;89.22;102724.13;5093768;28;20038;-54
2022/03/07 07:20:45;;;;;;;32.90;16.08;;;;;;;-3.15;89.22;102720.75;5093842;28;20276;-55
2022/03/07 07:23:10;;;;;;;31.40;15.65;;;;;;;-3.06;89.21;102716.16;5093450;28;20112;-56
2022/03/07 07:25:36;;;;;;;33.25;16.30;;;;;;;-3.00;88.61;102718.22;5091960;28;20509;-54
2022/03/07 07:28:01;;;;;;;32.42;15.27;;;;;;;-2.94;88.75;102714.81;5090144;28;20030;-53
2022/03/07 07:30:26;;;;;;;33.25;15.70;;;;;;;-2.86;88.15;102719.41;5090884;28;20041;-54
2022/03/07 07:32:51;;;;;;;30.40;15.02;;;;;;;-2.78;88.44;102722.09;5090793;28;20020;-55
2022/03/07 07:35:17;;;;;;;34.03;15.50;;;;;;;-2.70;88.33;102716.66;5090828;28;20028;-54
2022/03/07 07:37:42;;;;;;;29.60;14.18;;;;;;;-2.61;88.12;102713.94;5090970;28;20095;-54
2022/03/07 07:40:09;;;;;;;31.23;14.55;;;;;;;-2.53;87.47;102722.91;5089667;28;20038;-55
2022/03/07 07:42:35;;;;;;;31.58;15.35;;;;;;;-2.45;87.16;102730.16;5091179;28;20475;-55
2022/03/07 07:45:00;;;;;;;31.38;14.25;;;;;;;-2.37;86.65;102732.88;5089271;28;20024;-54
2022/03/07 07:47:25;;;;;;;29.30;13.70;;;;;;;-2.30;86.41;102733.03;5090817;28;20038;-56
2022/03/07 07:49:51;;;;;;;30.40;13.38;;;;;;;-2.21;86.46;102739.28;5089815;28;20040;-54
2022/03/07 07:52:16;;;;;;;32.17;15.73;;;;;;;-2.13;86.44;102743.84;5091070;28;20039;-55
2022/03/07 07:54:41;;;;;;;29.88;14.80;;;;;;;-2.07;85.93;102738.53;5089519;28;20035;-55
2022/03/07 07:57:07;;;;;;;28.92;13.90;;;;;;;-1.98;85.33;102739.38;5091007;28;20040;-55
2022/03/07 07:59:33;;;;;;;29.60;14.30;;;;;;;-1.90;84.79;102736.63;5090152;28;20032;-53
2022/03/07 08:01:58;;;;;;;31.13;15.00;;;;;;;-1.82;84.26;102737.59;5090189;28;20051;-54
2022/03/07 08:04:24;;;;;;;27.13;12.57;;;;;;;-1.74;83.73;102737.56;5090037;28;20024;-55
2022/03/07 08:06:49;;;;;;;27.13;12.23;;;;;;;-1.67;84.27;102740.41;5090340;28;20042;-55
2022/03/07 08:09:15;;;;;;;28.60;12.25;;;;;;;-1.59;82.81;102743.94;5089759;28;20043;-55
2022/03/07 08:11:40;;;;;;;27.25;12.13;;;;;;;-1.50;83.04;102736.59;5088645;28;20050;-53
2022/03/07 08:14:06;;;;;;;29.15;14.88;;;;;;;-1.38;82.67;102739.75;5090068;28;20089;-55
2022/03/07 08:16:31;;;;;;;28.80;12.68;;;;;;;-1.32;82.00;102741.75;5089866;28;20395;-55
2022/03/07 08:18:56;;;;;;;26.98;11.98;;;;;;;-1.22;81.63;102740.66;5089927;28;20112;-56
2022/03/07 08:21:25;;;;;;;27.25;12.32;;;;;;;-1.13;81.13;102747.72;5090017;28;20440;-55
2022/03/07 08:23:54;;;;;;;26.35;12.30;;;;;;;-1.08;80.93;102739.88;5090053;28;20040;-55
2022/03/07 08:26:19;;;;;;;24.63;11.20;;;;;;;-0.99;80.71;102737.94;5090241;28;20028;-54
2022/03/07 08:28:44;;;;;;;25.65;11.55;;;;;;;-0.91;80.35;102737.88;5090391;28;20035;-58
2022/03/07 08:31:10;;;;;;;24.83;11.98;;;;;;;-0.84;79.91;102736.13;5090068;28;20035;-58
2022/03/07 08:33:35;;;;;;;26.55;12.38;;;;;;;-0.75;79.38;102745.06;5090128;28;20486;-56
2022/03/07 08:36:01;;;;;;;25.17;10.93;;;;;;;-0.66;79.09;102740.41;5089547;28;20035;-54
2022/03/07 08:38:27;;;;;;;24.48;11.30;;;;;;;-0.62;78.42;102739.00;5089631;28;20035;-55
2022/03/07 08:40:53;;;;;;;25.65;11.13;;;;;;;-0.52;78.34;102739.56;5090300;28;20036;-56
2022/03/07 08:43:19;;;;;;;25.17;11.48;;;;;;;-0.43;78.02;102740.34;5090354;28;20034;-55
2022/03/07 08:45:44;;;;;;;26.40;12.15;;;;;;;-0.32;78.77;102745.31;5086867;28;20032;-56
2022/03/07 08:48:09;;;;;;;24.67;10.63;;;;;;;-0.21;78.17;102738.59;5089921;28;20185;-55
2022/03/07 08:50:35;;;;;;;24.73;10.82;;;;;;;-0.10;77.46;102741.88;5089295;28;20080;-57
2022/03/07 08:53:00;;;;;;;23.77;10.85;;;;;;;0.01;75.52;102737.81;5090072;28;20024;-57
2022/03/07 08:55:26;;;;;;;23.67;10.95;;;;;;;0.11;75.92;102738.38;5089683;28;20020;-56
2022/03/07 08:57:51;;;;;;;23.25;9.18;;;;;;;0.22;75.05;102743.34;5089431;28;20109;-57
2022/03/07 09:00:17;;;;;;;24.98;11.32;;;;;;;0.29;74.14;102735.25;5083770;28;20028;-56
2022/03/07 09:02:42;;;;;;;23.58;9.32;;;;;;;0.41;73.24;102741.06;5083132;28;20482;-57
2022/03/07 09:05:08;;;;;;;22.98;9.30;;;;;;;0.51;73.17;102735.28;5083460;28;20438;-55
2022/03/07 09:07:33;;;;;;;22.02;8.30;;;;;;;0.62;71.60;102730.19;5080068;28;20368;-56
2022/03/07 09:09:58;;;;;;;21.05;8.45;;;;;;;0.70;69.77;102725.69;5092368;28;20070;-56
2022/03/07 09:12:27;;;;;;;20.98;8.95;;;;;;;0.81;69.07;102724.31;5093222;28;20522;-56
2022/03/07 09:14:55;;;;;;;21.23;7.90;;;;;;;0.85;69.75;102726.44;5085665;28;20024;-56
2022/03/07 09:17:21;;;;;;;20.90;8.38;;;;;;;0.95;69.12;102725.28;5076670;28;20025;-56
2022/03/07 09:19:46;;;;;;;20.20;7.85;;;;;;;1.02;68.26;102729.75;5072505;28;20025;-58
2022/03/07 09:22:11;;;;;;;21.65;7.72;;;;;;;1.09;67.80;102719.75;5087789;28;20099;-58
2022/03/07 09:24:36;;;;;;;19.80;7.80;;;;;;;1.18;66.39;102725.91;5093185;28;20032;-57
2022/03/07 09:27:02;;;;;;;18.08;7.35;;;;;;;1.26;66.20;102721.38;5093183;28;20434;-57
2022/03/07 09:29:27;;;;;;;21.17;7.65;;;;;;;1.32;65.14;102721.44;5092745;28;20038;-57
2022/03/07 09:31:53;;;;;;;21.33;7.80;;;;;;;1.41;66.03;102711.19;5093133;28;20032;-57
2022/03/07 09:34:18;;;;;;;20.27;7.57;;;;;;;1.47;65.63;102715.03;5092915;28;20026;-58
2022/03/07 09:36:43;;;;;;;20.38;7.30;;;;;;;1.56;64.21;102717.38;5093455;28;20434;-59
2022/03/07 09:39:09;;;;;;;19.65;7.50;;;;;;;1.60;64.59;102711.53;5093317;28;20067;-56
2022/03/07 09:41:34;;;;;;;19.60;7.88;;;;;;;1.73;64.32;102710.78;5091826;28;20039;-57
2022/03/07 09:43:59;;;;;;;19.90;8.43;;;;;;;1.77;63.66;102712.91;5091222;28;20028;-57
2022/03/07 09:46:25;;;;;;;20.05;7.40;;;;;;;1.83;63.29;102711.25;5092511;28;20036;-57
2022/03/07 09:48:53;;;;;;;20.67;7.50;;;;;;;1.88;63.29;102703.31;5093489;28;20077;-57
2022/03/07 09:51:18;;;;;;;20.15;8.00;;;;;;;1.97;62.14;102704.84;5092779;28;20028;-55
2022/03/07 09:53:43;;;;;;;19.58;7.55;;;;;;;2.04;62.37;102702.13;5093246;28;20020;-56
2022/03/07 09:56:08;;;;;;;20.85;8.25;;;;;;;2.07;60.68;102696.25;5092975;28;20024;-55
2022/03/07 09:58:34;;;;;;;20.10;7.28;;;;;;;2.13;61.61;102700.06;5092825;28;20036;-56
2022/03/07 10:01:11;;;;;;;19.35;6.68;;;;;;;2.12;60.57;102688.31;5093110;28;20123;-55
2022/03/07 10:03:36;;;;;;;18.05;6.28;;;;;;;2.23;59.60;102689.59;5093009;28;20031;-55
2022/03/07 10:06:09;;;;;;;19.27;6.93;;;;;;;2.30;60.80;102685.00;5092771;28;20036;-56
2022/03/07 10:08:35;;;;;;;18.55;6.00;;;;;;;2.38;60.40;102683.97;5092737;28;20161;-56
2022/03/07 10:11:08;;;;;;;18.25;6.35;;;;;;;2.47;59.70;102692.81;5092600;28;20103;-56
2022/03/07 10:13:33;;;;;;;17.38;6.13;;;;;;;2.55;59.02;102689.06;5090666;28;20113;-56
2022/03/07 10:16:04;;;;;;;18.05;6.53;;;;;;;2.61;58.35;102688.22;5092620;28;20032;-58
2022/03/07 10:18:30;;;;;;;19.70;6.15;;;;;;;2.62;58.54;102677.13;5092615;28;20118;-57
2022/03/07 10:20:59;;;;;;;17.80;6.30;;;;;;;2.68;59.36;102678.19;5092612;28;20031;-57
2022/03/07 10:23:25;;;;;;;20.60;6.95;;;;;;;2.69;57.88;102673.53;5092020;28;20119;-56
2022/03/07 10:25:51;;;;;;;20.55;7.65;;;;;;;2.75;57.69;102692.69;5090701;28;20035;-57
2022/03/07 10:28:17;;;;;;;20.45;6.93;;;;;;;2.77;56.88;102679.66;5092009;28;20020;-56
2022/03/07 10:30:43;;;;;;;18.48;6.63;;;;;;;2.81;57.46;102674.63;5091638;28;20040;-55
2022/03/07 10:33:12;;;;;;;19.23;6.40;;;;;;;2.73;57.20;102652.94;5092147;28;20043;-57
2022/03/07 10:35:41;;;;;;;19.35;6.28;;;;;;;2.92;58.10;102671.25;5092018;28;20032;-56
2022/03/07 10:38:13;;;;;;;18.77;6.50;;;;;;;3.00;58.21;102663.91;5092206;28;20085;-57
2022/03/07 10:40:41;;;;;;;18.00;6.28;;;;;;;3.09;56.62;102670.84;5092393;28;20077;-56
2022/03/07 10:43:08;;;;;;;18.27;6.22;;;;;;;3.11;56.22;102653.16;5091864;28;20031;-56
2022/03/07 10:45:48;;;;;;;15.40;5.43;;;;;;;3.16;56.62;102647.06;5090228;28;20495;-57
2022/03/07 10:48:14;;;;;;;17.83;6.03;;;;;;;3.17;56.01;102653.34;5091693;28;20070;-57
2022/03/07 10:50:46;;;;;;;15.73;5.75;;;;;;;3.25;56.95;102645.78;5091754;28;20546;-55
2022/03/07 10:53:11;;;;;;;17.67;6.22;;;;;;;3.34;55.80;102648.28;5091672;28;20024;-57
2022/03/07 10:55:37;;;;;;;17.90;6.07;;;;;;;3.38;55.27;102644.91;5091650;28;20516;-57
2022/03/07 10:58:13;;;;;;;16.63;5.72;;;;;;;3.27;56.81;102626.41;5085063;28;20025;-57
2022/03/07 11:00:52;;;;;;;18.42;5.88;;;;;;;3.47;56.08;102636.47;5079384;28;20082;-57
2022/03/07 11:03:21;;;;;;;15.93;5.28;;;;;;;3.52;55.68;102620.28;5069888;28;20052;-57
2022/03/07 11:05:47;;;;;;;17.42;6.05;;;;;;;3.58;55.39;102625.72;5071680;28;20024;-57